createdAt,value
2023-01-03T00:03:49.864Z,101252.81
2023-01-03T00:08:51.692Z,101266.78
2023-01-03T00:13:53.159Z,101270.47
2023-01-03T00:18:54.623Z,101265.47
2023-01-03T00:23:56.324Z,101262.59
2023-01-03T00:28:57.826Z,101274.38
2023-01-03T00:33:59.418Z,101270.44
2023-01-03T00:39:00.808Z,101282.75
2023-01-03T00:44:02.254Z,101293.81
2023-01-03T00:49:04.919Z,101290.13
2023-01-03T00:54:08.080Z,101301.91
2023-01-03T00:59:10.908Z,101301.53
2023-01-03T01:04:19.274Z,101305.13
2023-01-03T01:09:24.380Z,101308.25
2023-01-03T01:14:27.837Z,101322.78
2023-01-03T01:19:31.729Z,101333.56
2023-01-03T01:24:33.993Z,101352.88
2023-01-03T01:29:37.206Z,101356.72
2023-01-03T01:34:40.202Z,101369.13
2023-01-03T01:39:41.549Z,101374.09
2023-01-03T01:45:04.023Z,101378.38
2023-01-03T01:50:30.732Z,101381.47
2023-01-03T01:55:38.877Z,101390.66
2023-01-03T02:00:42.724Z,101399.28
2023-01-03T02:05:51.074Z,101406.97
2023-01-03T02:11:17.426Z,101406.56
2023-01-03T02:16:35.311Z,101401.66
2023-01-03T02:21:58.591Z,101403.78
2023-01-03T02:27:23.862Z,101415.94
2023-01-03T02:32:40.725Z,101414.25
2023-01-03T02:37:55.467Z,101414.03
2023-01-03T02:43:06.029Z,101417.22
2023-01-03T02:48:19.257Z,101415.41
2023-01-03T02:53:36.707Z,101418.41
2023-01-03T02:58:43.488Z,101414.78
2023-01-03T03:03:45.339Z,101422.13
2023-01-03T03:08:48.013Z,101421.94
2023-01-03T03:14:02.551Z,101420.44
2023-01-03T03:19:43.180Z,101424.81
2023-01-03T03:24:50.471Z,101432.16
2023-01-03T03:29:55.127Z,101431.84
2023-01-03T03:34:59.473Z,101434.94
2023-01-03T03:40:19.692Z,101434.41
2023-01-03T03:45:39.956Z,101448.69
2023-01-03T03:50:49.793Z,101454.78
2023-01-03T03:55:59.368Z,101454.66
2023-01-03T04:01:02.651Z,101461.16
2023-01-03T04:06:16.169Z,101455.53
2023-01-03T04:11:17.990Z,101463.31
2023-01-03T04:16:19.473Z,101480.84
2023-01-03T04:21:21.296Z,101480.66
2023-01-03T04:26:22.759Z,101485.78
2023-01-03T04:31:25.735Z,101502.16
2023-01-03T04:36:27.246Z,101503.47
2023-01-03T04:41:28.695Z,101512.41
2023-01-03T04:46:32.781Z,101512.44
2023-01-03T04:51:35.036Z,101511.00
2023-01-03T04:56:38.205Z,101521.28
2023-01-03T05:01:39.691Z,101526.25
2023-01-03T05:06:41.217Z,101539.19
2023-01-03T05:11:42.637Z,101528.91
2023-01-03T05:16:44.174Z,101546.72
2023-01-03T05:22:04.329Z,101535.66
2023-01-03T05:27:06.248Z,101546.44
2023-01-03T05:32:07.756Z,101548.84
2023-01-03T05:37:09.328Z,101554.78
2023-01-03T05:42:10.764Z,101560.84
2023-01-03T05:47:12.207Z,101569.03
2023-01-03T05:52:13.683Z,101574.84
2023-01-03T05:57:15.168Z,101580.00
2023-01-03T06:02:16.699Z,101591.69
2023-01-03T06:07:18.174Z,101585.25
2023-01-03T06:12:19.622Z,101586.09
2023-01-03T06:17:40.146Z,101583.53
2023-01-03T06:22:41.590Z,101583.13
2023-01-03T06:27:43.058Z,101604.34
2023-01-03T06:32:44.753Z,101605.00
2023-01-03T06:37:46.211Z,101600.50
2023-01-03T06:42:47.682Z,101605.00
2023-01-03T06:48:07.972Z,101605.41
2023-01-03T06:53:17.996Z,101622.78
2023-01-03T06:58:19.424Z,101621.16
2023-01-03T07:03:21.394Z,101624.81
2023-01-03T07:08:22.876Z,101625.06
2023-01-03T07:13:43.022Z,101638.78
2023-01-03T07:18:50.690Z,101653.03
2023-01-03T07:23:57.163Z,101652.19
2023-01-03T07:28:59.627Z,101654.75
2023-01-03T07:34:01.366Z,101646.75
2023-01-03T07:39:02.774Z,101646.97
2023-01-03T07:44:04.353Z,101656.09
2023-01-03T07:49:11.544Z,101661.31
2023-01-03T07:54:13.549Z,101664.38
2023-01-03T07:59:15.976Z,101675.03
2023-01-03T08:04:17.619Z,101681.88
2023-01-03T08:09:37.782Z,101686.59
2023-01-03T08:14:39.223Z,101693.84
2023-01-03T08:19:45.559Z,101698.63
2023-01-03T08:24:47.463Z,101706.38
2023-01-03T08:29:48.910Z,101704.88
2023-01-03T08:34:50.632Z,101707.84
2023-01-03T08:39:57.474Z,101718.88
2023-01-03T08:45:04.281Z,101719.63
2023-01-03T08:50:06.295Z,101700.78
2023-01-03T08:55:08.293Z,101708.13
2023-01-03T09:00:10.504Z,101712.78
2023-01-03T09:05:12.016Z,101732.56
2023-01-03T09:10:13.452Z,101727.69
2023-01-03T09:15:14.937Z,101735.41
2023-01-03T09:20:18.098Z,101744.34
2023-01-03T09:25:19.969Z,101746.66
2023-01-03T09:30:21.411Z,101750.66
2023-01-03T09:35:22.850Z,101751.34
2023-01-03T09:40:25.240Z,101744.75
2023-01-03T09:45:30.958Z,101752.22
2023-01-03T09:50:57.107Z,101753.28
2023-01-03T09:56:18.855Z,101750.03
2023-01-03T10:02:10.880Z,101751.75
2023-01-03T10:07:42.107Z,101748.38
2023-01-03T10:13:26.372Z,101755.53
2023-01-03T10:18:56.806Z,101758.38
2023-01-03T10:23:58.947Z,101750.81
2023-01-03T10:29:01.071Z,101754.44
2023-01-03T10:34:05.875Z,101749.19
2023-01-03T10:39:09.724Z,101740.34
2023-01-03T10:44:31.548Z,101729.91
2023-01-03T10:49:32.998Z,101733.06
2023-01-03T10:54:43.614Z,101738.19
2023-01-03T10:59:49.100Z,101734.66
2023-01-03T11:05:12.297Z,101729.56
2023-01-03T11:10:18.630Z,101727.00
2023-01-03T11:15:25.275Z,101727.47
2023-01-03T11:20:39.901Z,101713.38
2023-01-03T11:25:55.470Z,101712.13
2023-01-03T11:31:11.326Z,101718.72
2023-01-03T11:36:31.516Z,101714.41
2023-01-03T11:41:47.733Z,101715.56
2023-01-03T11:47:26.717Z,101713.63
2023-01-03T11:52:34.054Z,101703.94
2023-01-03T11:57:44.140Z,101708.00
2023-01-03T12:03:02.302Z,101708.72
2023-01-03T12:08:03.851Z,101701.09
2023-01-03T12:13:12.988Z,101708.81
2023-01-03T12:18:35.809Z,101714.06
2023-01-03T12:23:43.128Z,101713.88
2023-01-03T12:29:36.018Z,101713.16
2023-01-03T12:34:42.699Z,101707.47
2023-01-03T12:39:55.385Z,101713.34
2023-01-03T12:45:05.032Z,101696.94
2023-01-03T12:50:38.925Z,101689.03
2023-01-03T12:55:51.043Z,101686.94
2023-01-03T13:01:08.547Z,101680.72
2023-01-03T13:06:18.667Z,101672.09
2023-01-03T13:11:29.099Z,101679.16
2023-01-03T13:16:36.610Z,101664.63
2023-01-03T13:21:53.412Z,101672.22
2023-01-03T13:27:19.706Z,101668.91
2023-01-03T13:32:21.086Z,101677.53
2023-01-03T13:37:27.038Z,101679.69
2023-01-03T13:42:34.592Z,101683.88
2023-01-03T13:47:47.389Z,101672.72
2023-01-03T13:53:10.627Z,101678.28
2023-01-03T13:58:24.155Z,101677.44
2023-01-03T14:03:53.782Z,101689.59
2023-01-03T14:09:24.765Z,101684.75
2023-01-03T14:14:30.373Z,101691.91
2023-01-03T14:19:35.650Z,101692.59
2023-01-03T14:24:37.114Z,101691.94
2023-01-03T14:29:41.076Z,101703.72
2023-01-03T14:34:42.533Z,101699.47
2023-01-03T14:40:07.073Z,101704.66
2023-01-03T14:45:17.203Z,101699.09
2023-01-03T14:50:29.190Z,101705.47
2023-01-03T14:55:32.516Z,101702.03
2023-01-03T15:00:36.197Z,101715.56
2023-01-03T15:05:40.616Z,101724.50
2023-01-03T15:10:47.812Z,101725.34
2023-01-03T15:15:58.136Z,101732.09
2023-01-03T15:21:01.889Z,101736.22
2023-01-03T15:26:04.982Z,101740.56
2023-01-03T15:31:32.336Z,101741.59
2023-01-03T15:36:33.913Z,101753.34
2023-01-03T15:42:34.432Z,101754.00
2023-01-03T15:47:23.645Z,101760.41
2023-01-03T15:52:25.639Z,101762.75
2023-01-03T15:57:30.134Z,101772.13
2023-01-03T16:02:31.975Z,101771.84
2023-01-03T16:07:33.516Z,101773.22
2023-01-03T16:12:37.371Z,101773.22
2023-01-03T16:17:39.038Z,101770.22
2023-01-03T16:22:55.471Z,101772.81
2023-01-03T16:27:59.385Z,101782.72
2023-01-03T16:33:00.812Z,101781.91
2023-01-03T16:38:02.326Z,101774.19
2023-01-03T16:43:03.765Z,101773.66
2023-01-03T16:48:05.748Z,101768.97
2023-01-03T16:53:09.001Z,101763.84
2023-01-03T16:58:15.605Z,101772.19
2023-01-03T17:03:17.162Z,101771.88
2023-01-03T17:08:35.988Z,101778.34
2023-01-03T17:13:44.328Z,101768.25
2023-01-03T17:18:46.390Z,101774.59
2023-01-03T17:23:48.345Z,101781.50
2023-01-03T17:28:51.196Z,101780.59
2023-01-03T17:33:53.341Z,101785.47
2023-01-03T17:38:59.220Z,101787.97
2023-01-03T17:44:00.649Z,101787.59
2023-01-03T17:49:21.362Z,101802.97
2023-01-03T17:54:30.165Z,101798.34
2023-01-03T17:59:32.288Z,101797.59
2023-01-03T18:05:05.320Z,101798.00
2023-01-03T18:09:55.482Z,101802.38
2023-01-03T18:14:56.904Z,101795.50
2023-01-03T18:19:59.133Z,101792.94
2023-01-03T18:25:00.581Z,101800.72
2023-01-03T18:30:02.100Z,101791.75
2023-01-03T18:35:03.783Z,101793.13
2023-01-03T18:40:08.111Z,101802.19
2023-01-03T18:45:12.359Z,101798.00
2023-01-03T18:50:19.091Z,101807.41
2023-01-03T18:55:24.522Z,101815.06
2023-01-03T19:00:26.616Z,101805.72
2023-01-03T19:05:28.350Z,101807.59
2023-01-03T19:10:29.849Z,101805.44
2023-01-03T19:15:31.481Z,101783.22
2023-01-03T19:20:35.245Z,101787.75
2023-01-03T19:25:36.680Z,101791.59
2023-01-03T19:30:40.311Z,101788.69
2023-01-03T19:35:43.465Z,101790.50
2023-01-03T19:40:45.498Z,101787.53
2023-01-03T19:45:47.364Z,101786.91
2023-01-03T19:50:50.304Z,101782.81
2023-01-03T19:55:55.152Z,101786.56
2023-01-03T20:00:57.123Z,101784.41
2023-01-03T20:05:59.180Z,101783.41
2023-01-03T20:11:02.047Z,101780.19
2023-01-03T20:16:03.729Z,101776.44
2023-01-03T20:21:07.433Z,101778.25
2023-01-03T20:26:22.472Z,101777.41
2023-01-03T20:31:24.832Z,101772.66
2023-01-03T20:36:32.381Z,101769.09
2023-01-03T20:41:37.170Z,101765.00
2023-01-03T20:46:39.747Z,101761.56
2023-01-03T20:51:41.310Z,101760.38
2023-01-03T20:56:43.431Z,101761.22
2023-01-03T21:01:47.719Z,101762.06
2023-01-03T21:06:51.896Z,101772.44
2023-01-03T21:11:53.341Z,101765.16
2023-01-03T21:16:54.880Z,101762.59
2023-01-03T21:21:58.242Z,101761.63
2023-01-03T21:26:59.684Z,101763.88
2023-01-03T21:32:01.244Z,101748.88
2023-01-03T21:37:02.820Z,101753.66
2023-01-03T21:42:23.774Z,101746.78
2023-01-03T21:47:25.218Z,101740.31
2023-01-03T21:52:26.638Z,101742.66
2023-01-03T21:57:28.098Z,101735.13
2023-01-03T22:02:47.964Z,101743.09
2023-01-03T22:07:49.936Z,101739.25
2023-01-03T22:12:52.563Z,101735.03
2023-01-03T22:17:55.193Z,101729.91
2023-01-03T22:22:56.625Z,101728.88
2023-01-03T22:27:58.077Z,101726.69
2023-01-03T22:32:59.510Z,101723.78
2023-01-03T22:38:00.931Z,101716.38
2023-01-03T22:43:02.372Z,101709.16
2023-01-03T22:48:03.933Z,101718.91
2023-01-03T22:53:05.373Z,101721.75
2023-01-03T22:58:06.817Z,101720.88
2023-01-03T23:03:08.358Z,101714.47
2023-01-03T23:08:09.840Z,101703.69
2023-01-03T23:13:11.276Z,101699.66
2023-01-03T23:18:12.715Z,101688.78
2023-01-03T23:23:14.201Z,101702.53
2023-01-03T23:28:15.641Z,101694.34
2023-01-03T23:33:17.075Z,101690.03
2023-01-03T23:38:18.500Z,101671.13
2023-01-03T23:43:19.930Z,101671.78
2023-01-03T23:48:21.396Z,101671.97
2023-01-03T23:53:22.828Z,101663.44
2023-01-03T23:58:24.279Z,101657.31
